Time;durP1;ratioP1;P1;durP2;ratioP2;P2;SDS_P1;SDS_P2;PMS_P1;PMS_P2;Temp;Humidity;BMP_temperature;BMP_pressure;BME280_temperature;BME280_humidity;BME280_pressure;Samples;Min_cycle;Max_cycle;Signal;HPM_P1;HPM_P2
2023/01/20 00:00:04;;;;;;;19.57;17.70;;;6.20;28.50;;;;;;5009856;28;20654;-75
2023/01/20 00:02:29;;;;;;;19.13;17.70;;;6.20;27.80;;;;;;5009448;28;20185;-74
2023/01/20 00:04:55;;;;;;;18.53;17.10;;;6.20;27.80;;;;;;5008843;28;20448;-75
2023/01/20 00:07:20;;;;;;;18.37;16.97;;;6.20;27.70;;;;;;5010021;28;20265;-76
2023/01/20 00:09:46;;;;;;;17.63;16.33;;;6.20;27.40;;;;;;5009234;28;20186;-76
2023/01/20 00:12:11;;;;;;;18.73;16.80;;;5.70;28.00;;;;;;5010243;28;20182;-76
2023/01/20 00:14:37;;;;;;;17.43;16.20;;;5.50;28.70;;;;;;5009178;28;20181;-76
2023/01/20 00:17:02;;;;;;;17.87;16.23;;;5.20;28.90;;;;;;5008908;28;20414;-76
2023/01/20 00:19:28;;;;;;;16.50;15.23;;;5.10;29.80;;;;;;5009219;28;20209;-75
2023/01/20 00:21:54;;;;;;;17.77;16.47;;;4.80;29.60;;;;;;5009459;28;20174;-76
2023/01/20 00:24:19;;;;;;;17.40;16.30;;;4.60;30.30;;;;;;5009771;28;20243;-76
2023/01/20 00:26:45;;;;;;;18.57;17.27;;;4.50;31.00;;;;;;5008996;28;20217;-76
2023/01/20 00:29:10;;;;;;;16.90;15.70;;;4.50;31.00;;;;;;5009489;28;20314;-76
2023/01/20 00:31:36;;;;;;;17.00;15.90;;;4.80;31.00;;;;;;5009516;28;20240;-76
2023/01/20 00:34:02;;;;;;;16.83;15.67;;;4.90;29.80;;;;;;5010269;28;20182;-76
2023/01/20 00:36:30;;;;;;;17.77;16.23;;;5.00;29.90;;;;;;5009209;28;20440;-76
2023/01/20 00:38:56;;;;;;;17.43;16.33;;;5.00;29.60;;;;;;5009431;28;20200;-76
2023/01/20 00:41:21;;;;;;;18.67;17.27;;;5.00;29.30;;;;;;5008643;28;20499;-76
2023/01/20 00:43:47;;;;;;;19.93;18.57;;;5.00;29.70;;;;;;5009121;28;20276;-74
2023/01/20 00:46:14;;;;;;;18.53;17.23;;;4.90;30.00;;;;;;5009220;28;20704;-76
2023/01/20 00:48:40;;;;;;;18.50;17.20;;;4.70;31.00;;;;;;5008864;28;20557;-75
2023/01/20 00:51:07;;;;;;;19.10;17.70;;;4.70;31.90;;;;;;5008330;28;20443;-75
2023/01/20 00:53:33;;;;;;;18.73;17.33;;;5.00;31.30;;;;;;5009042;28;20412;-76
2023/01/20 00:55:58;;;;;;;17.43;16.13;;;5.20;30.20;;;;;;5007263;28;20448;-74
2023/01/20 00:58:24;;;;;;;18.27;17.07;;;5.50;29.50;;;;;;5008792;28;20423;-75
2023/01/20 01:00:51;;;;;;;17.53;16.33;;;5.70;29.30;;;;;;5008528;28;20177;-75
2023/01/20 01:03:17;;;;;;;17.10;16.10;;;5.80;28.90;;;;;;5008418;28;20412;-75
2023/01/20 01:05:43;;;;;;;16.20;15.20;;;5.90;28.20;;;;;;5008954;28;20516;-75
2023/01/20 01:08:09;;;;;;;17.40;16.20;;;6.10;28.00;;;;;;5008565;28;20196;-75
2023/01/20 01:10:35;;;;;;;16.30;15.20;;;6.10;27.60;;;;;;5008330;28;20405;-76
2023/01/20 01:13:03;;;;;;;16.63;15.53;;;6.10;27.50;;;;;;5009236;28;20535;-76
2023/01/20 01:15:29;;;;;;;16.77;15.73;;;5.80;27.70;;;;;;5008382;28;20202;-76
2023/01/20 01:17:57;;;;;;;17.80;16.50;;;5.60;28.10;;;;;;5008707;28;21090;-75
2023/01/20 01:20:23;;;;;;;17.13;15.93;;;5.60;28.00;;;;;;5008696;28;20438;-75
2023/01/20 01:22:48;;;;;;;17.70;16.50;;;5.50;29.20;;;;;;5008114;28;20919;-76
2023/01/20 01:25:14;;;;;;;16.70;15.60;;;5.60;29.20;;;;;;5007120;28;20471;-75
2023/01/20 01:27:40;;;;;;;18.30;17.03;;;5.70;28.90;;;;;;5008492;28;20197;-75
2023/01/20 01:30:06;;;;;;;18.63;16.93;;;5.60;28.90;;;;;;5009321;28;20178;-75
2023/01/20 01:32:31;;;;;;;17.53;16.40;;;5.60;29.20;;;;;;5008484;28;20181;-75
2023/01/20 01:34:57;;;;;;;17.97;16.70;;;5.70;29.30;;;;;;5009186;28;20408;-75
2023/01/20 01:37:23;;;;;;;17.87;16.63;;;5.90;29.10;;;;;;5008357;28;20195;-75
2023/01/20 01:39:48;;;;;;;17.13;16.00;;;6.00;28.80;;;;;;5006912;28;20316;-75
2023/01/20 01:42:17;;;;;;;19.03;17.47;;;6.10;28.10;;;;;;5008367;28;20204;-75
2023/01/20 01:45:10;;;;;;;17.20;16.00;;;6.10;27.70;;;;;;5007900;28;20586;-75
2023/01/20 01:48:07;;;;;;;16.47;15.37;;;6.00;28.10;;;;;;5008164;28;20408;-75
2023/01/20 01:50:46;;;;;;;16.17;15.17;;;5.90;28.10;;;;;;4995415;28;20519;-74
2023/01/20 01:53:13;;;;;;;16.40;15.40;;;5.70;27.90;;;;;;5009225;28;20462;-74
2023/01/20 01:55:44;;;;;;;17.47;16.27;;;5.40;29.10;;;;;;5011234;28;20462;-76
2023/01/20 01:58:14;;;;;;;16.73;15.63;;;5.40;29.10;;;;;;5012104;28;20482;-75
2023/01/20 02:00:40;;;;;;;15.53;14.53;;;5.20;29.20;;;;;;5009640;28;20424;-75
2023/01/20 02:03:06;;;;;;;16.10;15.00;;;5.00;30.10;;;;;;5011642;28;20412;-76
2023/01/20 02:05:35;;;;;;;19.17;17.87;;;4.80;30.60;;;;;;5011215;28;20489;-74
2023/01/20 02:08:02;;;;;;;18.07;16.90;;;5.00;31.50;;;;;;5010216;28;20502;-76
2023/01/20 02:10:27;;;;;;;16.90;15.80;;;5.20;30.50;;;;;;5010723;28;20412;-75
2023/01/20 02:12:53;;;;;;;18.87;17.57;;;5.40;29.90;;;;;;5011037;28;20439;-75
2023/01/20 02:15:26;;;;;;;16.83;15.77;;;5.60;29.20;;;;;;5011557;28;20575;-75
2023/01/20 02:18:03;;;;;;;18.30;17.10;;;5.80;29.30;;;;;;5010215;28;20428;-74
2023/01/20 02:20:33;;;;;;;17.67;16.47;;;5.90;28.80;;;;;;5011525;28;20412;-75
2023/01/20 02:23:20;;;;;;;17.97;16.77;;;6.00;28.30;;;;;;5010257;28;20416;-75
2023/01/20 02:26:08;;;;;;;19.53;17.93;;;6.00;28.10;;;;;;5011274;28;20978;-74
2023/01/20 02:28:57;;;;;;;19.07;17.60;;;6.00;28.70;;;;;;5012288;28;20424;-74
2023/01/20 02:31:47;;;;;;;17.10;16.00;;;6.10;28.10;;;;;;5011532;28;20463;-74
2023/01/20 02:34:26;;;;;;;18.53;17.23;;;6.00;28.10;;;;;;5010126;28;20408;-75
2023/01/20 02:37:09;;;;;;;18.93;17.53;;;5.90;29.30;;;;;;4993016;28;20436;-75
2023/01/20 02:39:49;;;;;;;17.63;16.43;;;6.00;28.70;;;;;;5010308;28;20813;-76
2023/01/20 02:42:23;;;;;;;16.83;15.70;;;6.00;28.60;;;;;;5010241;28;20416;-76
2023/01/20 02:45:26;;;;;;;16.67;15.47;;;6.00;28.60;;;;;;5010801;28;20768;-76
2023/01/20 02:48:14;;;;;;;15.90;14.80;;;6.10;28.60;;;;;;4986953;28;20428;-76
2023/01/20 02:50:45;;;;;;;14.60;13.70;;;6.10;28.30;;;;;;5010360;28;20405;-76
2023/01/20 02:53:13;;;;;;;16.93;15.73;;;6.00;28.90;;;;;;5009315;28;20417;-76
2023/01/20 02:55:49;;;;;;;14.47;13.53;;;5.70;29.20;;;;;;5010726;28;20437;-74
2023/01/20 02:58:38;;;;;;;14.90;13.80;;;5.40;29.80;;;;;;5009052;28;20420;-76
2023/01/20 03:01:15;;;;;;;14.67;13.80;;;5.40;29.10;;;;;;5009248;28;20425;-75
2023/01/20 03:03:45;;;;;;;14.23;13.23;;;5.50;29.60;;;;;;4992913;28;20416;-76
2023/01/20 03:06:17;;;;;;;14.27;13.37;;;5.60;29.20;;;;;;5010417;28;20466;-75
2023/01/20 03:08:47;;;;;;;13.60;12.90;;;5.70;28.20;;;;;;5010165;28;20413;-75
2023/01/20 03:11:12;;;;;;;13.83;13.03;;;5.80;28.10;;;;;;5010364;28;20419;-76
2023/01/20 03:13:49;;;;;;;14.57;13.57;;;5.90;27.80;;;;;;5010462;28;20910;-75
2023/01/20 03:16:19;;;;;;;13.83;12.93;;;5.90;27.50;;;;;;5002368;28;20224;-75
2023/01/20 03:18:45;;;;;;;13.83;13.03;;;5.90;27.30;;;;;;5015566;28;20428;-76
2023/01/20 03:21:11;;;;;;;13.70;13.00;;;5.90;27.10;;;;;;5006356;28;20508;-76
2023/01/20 03:23:41;;;;;;;13.63;12.90;;;5.90;27.10;;;;;;5008112;28;20185;-75
2023/01/20 03:26:10;;;;;;;14.10;13.30;;;5.90;27.20;;;;;;5009460;28;20817;-76
2023/01/20 03:28:36;;;;;;;12.47;11.87;;;5.80;27.10;;;;;;5009424;28;20907;-76
2023/01/20 03:31:17;;;;;;;12.77;12.07;;;5.80;27.00;;;;;;5009664;28;20428;-75
2023/01/20 03:33:44;;;;;;;13.40;12.70;;;5.80;26.90;;;;;;5009196;28;20193;-76
2023/01/20 03:36:11;;;;;;;13.93;13.13;;;5.80;27.30;;;;;;5009870;28;20439;-76
2023/01/20 03:38:37;;;;;;;14.43;13.63;;;5.80;27.50;;;;;;5009077;28;20539;-76
2023/01/20 03:41:30;;;;;;;14.87;14.03;;;5.80;27.60;;;;;;5009549;28;20964;-75
2023/01/20 03:44:14;;;;;;;14.87;14.07;;;5.70;27.50;;;;;;5008370;28;20573;-75
2023/01/20 03:46:56;;;;;;;15.57;14.63;;;5.70;27.80;;;;;;5009831;28;20467;-75
2023/01/20 03:49:46;;;;;;;14.80;13.90;;;5.70;27.90;;;;;;5009941;28;20412;-73
2023/01/20 03:52:31;;;;;;;14.97;14.17;;;5.70;27.80;;;;;;4982070;28;20424;-75
2023/01/20 03:55:08;;;;;;;14.67;13.90;;;5.70;28.10;;;;;;5010090;28;20413;-76
2023/01/20 03:57:40;;;;;;;14.53;13.73;;;5.70;28.10;;;;;;5008452;28;20420;-76
2023/01/20 04:00:09;;;;;;;14.80;13.93;;;5.70;28.50;;;;;;5010065;28;20420;-75
2023/01/20 04:02:36;;;;;;;14.60;13.70;;;5.70;28.30;;;;;;5007942;28;20556;-75
2023/01/20 04:05:03;;;;;;;15.27;14.47;;;5.60;28.60;;;;;;5009643;28;20818;-75
2023/01/20 04:07:30;;;;;;;14.77;13.97;;;5.60;28.50;;;;;;5008127;28;20479;-76
2023/01/20 04:10:02;;;;;;;16.33;15.33;;;5.60;28.10;;;;;;5008530;28;20808;-75
2023/01/20 04:12:28;;;;;;;15.67;14.80;;;5.40;29.10;;;;;;5007871;28;20796;-76
2023/01/20 04:14:53;;;;;;;15.60;14.70;;;5.00;30.10;;;;;;5006768;28;20764;-76
2023/01/20 04:17:19;;;;;;;15.50;14.70;;;4.80;31.30;;;;;;5008597;28;20431;-75
2023/01/20 04:19:45;;;;;;;15.87;14.93;;;4.80;31.00;;;;;;5008827;28;20320;-76
2023/01/20 04:22:13;;;;;;;15.60;14.53;;;4.60;31.50;;;;;;5009100;28;20412;-76
2023/01/20 04:25:03;;;;;;;14.60;13.77;;;4.30;32.50;;;;;;5008864;28;20182;-76
2023/01/20 04:27:28;;;;;;;16.27;15.37;;;4.00;33.90;;;;;;5009974;28;20444;-76
2023/01/20 04:29:54;;;;;;;16.40;15.50;;;4.00;34.70;;;;;;5008919;28;20774;-75
2023/01/20 04:32:19;;;;;;;16.03;15.13;;;3.80;33.80;;;;;;5009495;28;20307;-77
2023/01/20 04:34:45;;;;;;;16.97;15.97;;;3.60;34.90;;;;;;4992169;28;20327;-76
2023/01/20 04:37:10;;;;;;;17.37;16.00;;;3.70;35.20;;;;;;5008738;28;20792;-75
2023/01/20 04:39:36;;;;;;;16.50;15.60;;;3.60;34.80;;;;;;5009175;28;20264;-76
2023/01/20 04:42:02;;;;;;;17.50;16.40;;;3.60;35.00;;;;;;5008641;28;20189;-75
2023/01/20 04:44:27;;;;;;;17.20;16.30;;;3.50;35.40;;;;;;5009654;28;20204;-75
2023/01/20 04:46:57;;;;;;;16.27;15.33;;;3.50;35.40;;;;;;5009035;28;20691;-76
2023/01/20 04:49:23;;;;;;;17.07;15.83;;;3.70;35.20;;;;;;4983837;28;20619;-75
2023/01/20 04:51:48;;;;;;;15.60;14.70;;;3.90;34.50;;;;;;5009570;28;20495;-75
2023/01/20 04:54:14;;;;;;;15.10;14.20;;;4.20;33.00;;;;;;5009123;28;20186;-75
2023/01/20 04:56:39;;;;;;;15.53;14.53;;;4.60;31.70;;;;;;5013331;28;20263;-76
2023/01/20 04:59:05;;;;;;;14.83;14.03;;;4.90;30.50;;;;;;4992357;28;20268;-75
2023/01/20 05:01:30;;;;;;;14.20;13.30;;;5.00;29.90;;;;;;5016703;28;20263;-74
2023/01/20 05:03:56;;;;;;;15.60;14.70;;;5.10;29.50;;;;;;5017000;28;20216;-75
2023/01/20 05:06:21;;;;;;;14.87;14.10;;;5.20;29.40;;;;;;5020373;28;20240;-74
2023/01/20 05:08:47;;;;;;;14.10;13.40;;;5.30;29.40;;;;;;5019612;28;20186;-75
2023/01/20 05:11:12;;;;;;;15.20;14.20;;;5.60;28.20;;;;;;5009717;28;20177;-76
2023/01/20 05:13:39;;;;;;;14.43;13.63;;;5.90;27.10;;;;;;5009969;28;20185;-75
2023/01/20 05:16:09;;;;;;;14.47;13.70;;;5.50;26.90;;;;;;5008686;28;20217;-76
2023/01/20 05:18:34;;;;;;;13.60;12.90;;;5.40;28.40;;;;;;5009848;28;20420;-75
2023/01/20 05:21:00;;;;;;;13.87;13.17;;;5.50;27.90;;;;;;5009446;28;20839;-77
2023/01/20 05:23:25;;;;;;;14.13;13.43;;;5.60;27.00;;;;;;5010961;28;20582;-77
2023/01/20 05:25:52;;;;;;;14.60;13.80;;;5.50;27.60;;;;;;5014727;28;20237;-76
2023/01/20 05:28:18;;;;;;;13.67;12.97;;;5.40;27.90;;;;;;5013624;28;20240;-77
2023/01/20 05:30:44;;;;;;;14.07;13.27;;;5.50;27.90;;;;;;5013321;28;20474;-76
2023/01/20 05:33:10;;;;;;;13.67;12.87;;;5.70;27.10;;;;;;5014481;28;20495;-76
2023/01/20 05:35:39;;;;;;;14.17;13.27;;;5.80;26.20;;;;;;5013977;28;20535;-75
2023/01/20 05:38:05;;;;;;;14.60;13.80;;;6.00;25.90;;;;;;5014235;28;20945;-76
2023/01/20 05:40:31;;;;;;;14.20;13.30;;;6.10;25.30;;;;;;5014331;28;20412;-77
2023/01/20 05:43:00;;;;;;;13.53;12.73;;;6.20;26.10;;;;;;5014028;28;20659;-76
2023/01/20 05:45:26;;;;;;;14.93;13.90;;;6.20;25.30;;;;;;5014745;28;20225;-76
2023/01/20 05:47:57;;;;;;;14.40;13.60;;;6.30;25.00;;;;;;5012839;28;20782;-75
2023/01/20 05:50:23;;;;;;;13.70;12.90;;;6.30;24.70;;;;;;5014392;28;20750;-76
2023/01/20 05:52:49;;;;;;;13.83;13.03;;;6.30;24.60;;;;;;5014679;28;20459;-75
2023/01/20 05:55:15;;;;;;;14.37;13.67;;;6.20;24.80;;;;;;5014286;28;20534;-76
2023/01/20 05:57:40;;;;;;;14.77;13.83;;;6.20;24.90;;;;;;5013927;28;20284;-76
2023/01/20 06:00:07;;;;;;;13.80;13.10;;;6.10;25.10;;;;;;5014889;28;20205;-75
2023/01/20 06:02:32;;;;;;;13.90;13.10;;;6.00;25.00;;;;;;5014596;28;20181;-75
2023/01/20 06:05:01;;;;;;;14.37;13.63;;;6.00;25.20;;;;;;5014906;28;20478;-75
2023/01/20 06:07:28;;;;;;;16.20;15.30;;;6.00;25.10;;;;;;5014313;28;20184;-73
2023/01/20 06:09:54;;;;;;;15.27;14.37;;;6.10;25.00;;;;;;5001524;28;20436;-74
2023/01/20 06:12:19;;;;;;;15.93;14.93;;;6.00;24.90;;;;;;5027077;28;20442;-75
2023/01/20 06:14:45;;;;;;;15.20;14.30;;;6.00;25.70;;;;;;5032934;28;20925;-74
2023/01/20 06:17:10;;;;;;;14.70;13.90;;;5.80;25.00;;;;;;5026717;28;20687;-75
2023/01/20 06:19:39;;;;;;;15.00;14.20;;;5.40;26.70;;;;;;5014771;28;20248;-74
2023/01/20 06:22:06;;;;;;;14.40;13.53;;;5.40;27.40;;;;;;5012939;28;20185;-75
2023/01/20 06:24:32;;;;;;;15.53;14.73;;;5.50;26.70;;;;;;5014127;28;20451;-75
2023/01/20 06:26:57;;;;;;;15.37;14.47;;;5.60;26.40;;;;;;5014679;28;20900;-75
2023/01/20 06:29:23;;;;;;;14.77;13.97;;;5.70;26.30;;;;;;5014027;28;20709;-74
2023/01/20 06:31:49;;;;;;;15.93;15.03;;;5.70;26.50;;;;;;5014592;28;20348;-75
2023/01/20 06:34:14;;;;;;;16.30;15.30;;;5.70;26.30;;;;;;5015546;28;20185;-75
2023/01/20 06:36:40;;;;;;;16.40;15.50;;;5.70;26.60;;;;;;5014911;28;20209;-75
2023/01/20 06:39:06;;;;;;;13.90;13.07;;;5.70;26.50;;;;;;5013621;28;20236;-76
2023/01/20 06:41:32;;;;;;;16.20;15.27;;;5.90;25.90;;;;;;5013963;28;20263;-75
2023/01/20 06:43:57;;;;;;;15.47;14.50;;;5.90;25.80;;;;;;5013368;28;20428;-74
2023/01/20 06:46:23;;;;;;;16.23;15.33;;;5.70;26.30;;;;;;5013857;28;20471;-75
2023/01/20 06:48:48;;;;;;;16.67;15.60;;;5.60;26.70;;;;;;5014107;28;20268;-75
2023/01/20 06:51:19;;;;;;;16.83;15.80;;;5.60;26.50;;;;;;4996030;28;20632;-75
2023/01/20 06:53:45;;;;;;;16.60;15.60;;;5.70;26.20;;;;;;5014122;28;20189;-75
2023/01/20 06:56:12;;;;;;;16.20;15.30;;;5.80;26.70;;;;;;5014158;28;20546;-77
2023/01/20 06:58:41;;;;;;;15.30;14.40;;;5.90;26.20;;;;;;5012717;28;20424;-75
2023/01/20 07:01:10;;;;;;;15.90;14.90;;;5.70;25.90;;;;;;5014849;28;20420;-75
2023/01/20 07:03:36;;;;;;;16.63;15.70;;;5.70;27.10;;;;;;5013996;28;20420;-75
2023/01/20 07:06:13;;;;;;;16.47;15.20;;;5.80;26.90;;;;;;5016310;28;20563;-77
2023/01/20 07:08:42;;;;;;;17.73;16.57;;;5.80;26.60;;;;;;5014084;28;20449;-76
2023/01/20 07:11:08;;;;;;;17.40;16.40;;;5.90;26.10;;;;;;5013278;28;20475;-75
2023/01/20 07:13:33;;;;;;;17.53;16.50;;;5.90;26.40;;;;;;5010574;28;20432;-76
2023/01/20 07:15:59;;;;;;;16.47;15.50;;;5.90;26.20;;;;;;4993149;28;20298;-75
2023/01/20 07:18:24;;;;;;;16.40;15.43;;;6.00;25.90;;;;;;5013717;28;20195;-75
2023/01/20 07:20:54;;;;;;;17.20;16.00;;;6.00;25.70;;;;;;5017024;28;20552;-76
2023/01/20 07:23:20;;;;;;;16.60;15.57;;;6.00;25.80;;;;;;5012965;28;20239;-75
2023/01/20 07:25:46;;;;;;;16.60;15.60;;;5.80;26.30;;;;;;5011585;28;20474;-74
2023/01/20 07:28:11;;;;;;;16.83;15.80;;;5.90;26.20;;;;;;5012302;28;20436;-76
2023/01/20 07:30:37;;;;;;;16.10;14.90;;;5.80;26.40;;;;;;5017013;28;20185;-74
2023/01/20 07:33:04;;;;;;;15.93;14.83;;;5.60;26.70;;;;;;5020288;28;20180;-76
2023/01/20 07:35:30;;;;;;;18.30;17.10;;;5.40;27.20;;;;;;5012854;28;20215;-74
2023/01/20 07:37:55;;;;;;;17.80;16.80;;;5.40;27.80;;;;;;5018156;28;20435;-77
2023/01/20 07:40:21;;;;;;;17.47;16.37;;;5.50;27.00;;;;;;5011082;28;20186;-76
2023/01/20 07:42:46;;;;;;;16.67;15.67;;;5.70;26.50;;;;;;5011337;28;20185;-74
2023/01/20 07:45:12;;;;;;;16.43;15.50;;;5.80;26.20;;;;;;5011385;28;20209;-75
2023/01/20 07:47:37;;;;;;;17.70;16.30;;;5.90;26.30;;;;;;5011131;28;20561;-76
2023/01/20 07:50:03;;;;;;;15.50;14.40;;;6.00;27.20;;;;;;5010496;28;20221;-75
2023/01/20 07:52:29;;;;;;;15.33;14.43;;;6.00;27.20;;;;;;5011212;28;20599;-74
2023/01/20 07:54:54;;;;;;;15.03;14.20;;;6.10;27.40;;;;;;5010993;28;20420;-73
2023/01/20 07:57:20;;;;;;;15.83;14.63;;;5.90;27.10;;;;;;5010201;28;20193;-75
2023/01/20 07:59:45;;;;;;;16.70;15.60;;;5.70;27.00;;;;;;5010086;28;20189;-75
2023/01/20 08:02:11;;;;;;;16.87;15.70;;;5.70;27.80;;;;;;5009690;28;20535;-74
2023/01/20 08:04:36;;;;;;;16.23;15.33;;;5.70;26.70;;;;;;5012561;28;20585;-73
2023/01/20 08:07:02;;;;;;;17.73;16.73;;;5.50;26.10;;;;;;5012921;28;20339;-75
2023/01/20 08:09:28;;;;;;;16.37;15.37;;;5.40;26.90;;;;;;5011715;28;20189;-75
2023/01/20 08:11:53;;;;;;;17.83;16.67;;;5.40;27.10;;;;;;5011230;28;20420;-76
2023/01/20 08:14:19;;;;;;;17.53;16.57;;;5.00;27.80;;;;;;5012712;28;20185;-75
2023/01/20 08:16:44;;;;;;;19.77;18.57;;;4.80;28.20;;;;;;4995004;28;20566;-76
2023/01/20 08:19:10;;;;;;;18.67;17.53;;;4.90;28.50;;;;;;5013118;28;20193;-74
2023/01/20 08:21:35;;;;;;;17.80;16.70;;;4.70;28.60;;;;;;5012409;28;20725;-75
2023/01/20 08:24:06;;;;;;;16.93;15.70;;;4.70;29.60;;;;;;5011411;28;20582;-74
2023/01/20 08:26:32;;;;;;;17.40;16.40;;;4.70;29.40;;;;;;5011052;28;20232;-76
2023/01/20 08:29:08;;;;;;;18.07;16.70;;;4.80;29.50;;;;;;5012027;28;20420;-76
2023/01/20 08:31:34;;;;;;;19.40;18.00;;;4.90;29.60;;;;;;5011385;28;20511;-75
2023/01/20 08:34:01;;;;;;;21.90;20.30;;;5.10;29.90;;;;;;5012881;28;20451;-76
2023/01/20 08:36:32;;;;;;;16.93;15.93;;;5.30;28.80;;;;;;5012484;28;20258;-76
2023/01/20 08:39:01;;;;;;;16.93;15.93;;;5.40;29.30;;;;;;5012940;28;20762;-76
2023/01/20 08:41:29;;;;;;;18.73;17.43;;;5.40;29.10;;;;;;5012347;28;20423;-76
2023/01/20 08:43:57;;;;;;;17.93;16.83;;;5.30;29.00;;;;;;5013025;28;20412;-76
2023/01/20 08:46:23;;;;;;;19.50;17.83;;;5.10;28.70;;;;;;5012494;28;20499;-77
2023/01/20 08:48:49;;;;;;;20.83;19.50;;;5.20;29.90;;;;;;5012720;28;20396;-77
2023/01/20 08:51:22;;;;;;;18.53;17.50;;;5.20;28.90;;;;;;5012984;28;20181;-77
2023/01/20 08:53:47;;;;;;;17.80;16.60;;;4.80;29.60;;;;;;5012522;28;20428;-77
2023/01/20 08:56:14;;;;;;;17.10;16.00;;;4.60;30.00;;;;;;5012707;28;20432;-75
2023/01/20 08:58:40;;;;;;;18.60;17.27;;;4.40;30.70;;;;;;5012156;28;20420;-75
2023/01/20 09:01:14;;;;;;;17.73;16.53;;;4.30;32.00;;;;;;5012551;28;20428;-75
2023/01/20 09:03:40;;;;;;;16.10;15.10;;;4.30;31.90;;;;;;5015496;28;20443;-75
2023/01/20 09:06:07;;;;;;;16.83;15.83;;;4.20;30.50;;;;;;5016161;28;20464;-76
2023/01/20 09:08:33;;;;;;;17.27;16.20;;;4.00;32.30;;;;;;5016381;28;20184;-76
2023/01/20 09:11:10;;;;;;;17.00;15.93;;;4.10;32.00;;;;;;5014879;28;20942;-76
2023/01/20 09:13:36;;;;;;;17.57;16.50;;;4.40;31.40;;;;;;4999031;28;20548;-76
2023/01/20 09:16:03;;;;;;;17.07;16.17;;;4.60;31.40;;;;;;5015376;28;21098;-76
2023/01/20 09:18:30;;;;;;;19.40;18.00;;;4.60;30.80;;;;;;5015077;28;20424;-76
2023/01/20 09:20:59;;;;;;;16.47;15.57;;;4.40;31.50;;;;;;5016319;28;20424;-76
2023/01/20 09:23:25;;;;;;;16.90;15.77;;;4.20;30.60;;;;;;5016231;28;20431;-76
2023/01/20 09:25:51;;;;;;;16.40;15.40;;;4.00;31.50;;;;;;5014860;28;20479;-76
2023/01/20 09:28:19;;;;;;;15.93;15.03;;;3.90;31.80;;;;;;5016229;28;20436;-76
2023/01/20 09:30:45;;;;;;;17.60;16.50;;;3.70;32.40;;;;;;5015150;28;20443;-76
2023/01/20 09:33:11;;;;;;;16.30;15.40;;;3.70;33.00;;;;;;5015013;28;20428;-76
2023/01/20 09:35:36;;;;;;;17.10;16.20;;;3.80;32.70;;;;;;5015513;28;20256;-76
2023/01/20 09:44:04;;;;;;;16.77;15.47;;;3.80;32.20;;;;;;5016076;28;20423;-75
2023/01/20 09:47:20;;;;;;;18.20;17.10;;;3.80;32.80;;;;;;5015806;28;20460;-75
2023/01/20 09:55:39;;;;;;;16.40;15.40;;;4.30;31.10;;;;;;5016655;28;20574;-75
2023/01/20 09:58:40;;;;;;;17.73;16.37;;;4.30;30.70;;;;;;5016132;28;20404;-75
2023/01/20 10:01:18;;;;;;;17.30;16.40;;;4.40;30.70;;;;;;5000881;28;20526;-75
2023/01/20 10:03:56;;;;;;;17.67;16.57;;;4.10;31.20;;;;;;5016770;28;20946;-74
2023/01/20 10:06:32;;;;;;;19.77;18.33;;;4.00;31.50;;;;;;5016178;28;20464;-75
2023/01/20 10:09:17;;;;;;;17.80;16.40;;;4.30;31.30;;;;;;4997093;28;20474;-75
2023/01/20 10:11:45;;;;;;;16.13;15.13;;;4.50;29.80;;;;;;4996696;28;20417;-74
2023/01/20 10:14:38;;;;;;;15.90;15.00;;;4.40;29.80;;;;;;5008762;28;20405;-74
2023/01/20 10:17:04;;;;;;;15.67;14.77;;;4.10;30.30;;;;;;5005491;28;20460;-75
2023/01/20 10:19:42;;;;;;;16.70;15.67;;;3.90;31.00;;;;;;5008706;28;20413;-75
2023/01/20 10:22:29;;;;;;;15.93;14.73;;;3.80;31.50;;;;;;5003208;28;20244;-75
2023/01/20 10:24:58;;;;;;;15.63;14.50;;;4.00;32.30;;;;;;4997204;28;20463;-76
2023/01/20 10:27:27;;;;;;;16.43;15.33;;;4.30;30.20;;;;;;5007805;28;20451;-75
2023/01/20 10:30:02;;;;;;;16.67;15.77;;;4.30;29.90;;;;;;4988361;28;20492;-74
2023/01/20 10:32:37;;;;;;;17.63;15.87;;;4.10;30.30;;;;;;4991601;28;20561;-75
2023/01/20 10:35:14;;;;;;;15.07;14.17;;;4.10;30.00;;;;;;4975518;28;20508;-76
2023/01/20 10:37:40;;;;;;;14.97;14.13;;;4.30;31.30;;;;;;5001897;28;20448;-75
2023/01/20 10:40:30;;;;;;;15.40;14.30;;;4.50;29.40;;;;;;4995301;28;20753;-75
2023/01/20 10:42:59;;;;;;;16.07;14.97;;;4.70;29.50;;;;;;4995236;28;20401;-75
2023/01/20 10:45:46;;;;;;;15.87;14.87;;;4.80;29.30;;;;;;4995139;28;20563;-76
2023/01/20 10:48:39;;;;;;;17.00;15.80;;;5.10;28.90;;;;;;4994540;28;20420;-75
2023/01/20 10:51:36;;;;;;;15.00;13.80;;;5.20;28.50;;;;;;4994931;28;20414;-75
2023/01/20 10:54:13;;;;;;;15.53;14.13;;;5.30;27.30;;;;;;4976191;28;20410;-75
2023/01/20 10:56:45;;;;;;;15.93;14.73;;;5.40;26.90;;;;;;4994490;28;20429;-75
2023/01/20 10:59:16;;;;;;;15.20;14.10;;;4.90;28.00;;;;;;4995510;28;20421;-75
2023/01/20 11:01:45;;;;;;;14.83;13.73;;;5.10;28.20;;;;;;4993080;28;20447;-75
2023/01/20 11:04:17;;;;;;;15.03;14.10;;;5.10;27.80;;;;;;5015254;28;20452;-76
2023/01/20 11:06:44;;;;;;;14.67;13.77;;;5.00;27.90;;;;;;5011114;28;20479;-75
2023/01/20 11:09:38;;;;;;;14.27;13.40;;;5.00;28.90;;;;;;4993159;28;20975;-75
2023/01/20 11:12:13;;;;;;;15.53;14.33;;;5.30;29.00;;;;;;4993784;28;20413;-76
2023/01/20 11:14:39;;;;;;;30.57;17.60;;;5.60;28.30;;;;;;4993890;28;20789;-75
2023/01/20 11:17:07;;;;;;;14.60;13.73;;;5.70;27.10;;;;;;4992798;28;20472;-75
2023/01/20 11:19:56;;;;;;;14.90;13.80;;;5.40;27.10;;;;;;4994470;28;20405;-75
2023/01/20 11:22:30;;;;;;;13.30;12.40;;;5.20;27.10;;;;;;4992967;28;20421;-76
2023/01/20 11:24:58;;;;;;;18.50;14.23;;;5.00;27.00;;;;;;4992283;28;20417;-75
2023/01/20 11:27:46;;;;;;;13.00;12.07;;;4.70;27.40;;;;;;5006727;28;20428;-74
2023/01/20 11:30:34;;;;;;;12.60;11.90;;;4.90;27.60;;;;;;5013430;28;20444;-75
2023/01/20 11:33:20;;;;;;;12.80;11.97;;;5.30;26.50;;;;;;5013514;28;20502;-76
2023/01/20 11:36:04;;;;;;;13.13;12.43;;;5.60;25.70;;;;;;5012349;28;20989;-75
2023/01/20 11:38:47;;;;;;;13.00;12.20;;;5.80;25.00;;;;;;5013249;28;20427;-75
2023/01/20 11:41:21;;;;;;;11.93;11.33;;;6.00;24.80;;;;;;5013637;28;20663;-76
2023/01/20 11:43:48;;;;;;;12.70;11.80;;;6.10;23.80;;;;;;5013953;28;20983;-75
2023/01/20 11:46:15;;;;;;;13.40;12.07;;;6.20;23.40;;;;;;5013957;28;20920;-75
2023/01/20 11:48:41;;;;;;;12.23;11.60;;;6.20;23.20;;;;;;5011990;28;20795;-75
2023/01/20 11:51:19;;;;;;;12.13;11.53;;;6.30;22.80;;;;;;5012741;28;20576;-75
2023/01/20 11:53:45;;;;;;;12.50;11.90;;;6.30;22.90;;;;;;4991928;28;20436;-74
2023/01/20 11:56:23;;;;;;;12.60;11.80;;;6.40;22.20;;;;;;4993851;28;20847;-75
2023/01/20 11:58:57;;;;;;;12.07;11.47;;;6.40;22.50;;;;;;4993917;28;20417;-75
2023/01/20 12:01:28;;;;;;;12.10;11.40;;;6.40;22.10;;;;;;5005347;28;20579;-75
2023/01/20 12:04:22;;;;;;;11.30;10.77;;;6.40;22.40;;;;;;4994920;28;20421;-75
2023/01/20 12:07:17;;;;;;;12.33;11.67;;;6.50;22.80;;;;;;5008892;28;20467;-74
2023/01/20 12:09:47;;;;;;;12.13;11.40;;;6.60;22.10;;;;;;5012188;28;20421;-73
2023/01/20 12:12:46;;;;;;;11.60;10.87;;;6.50;21.80;;;;;;5013061;28;20416;-75
2023/01/20 12:15:21;;;;;;;10.63;10.13;;;6.60;21.80;;;;;;5013138;28;20447;-75
2023/01/20 12:18:11;;;;;;;12.13;11.27;;;6.70;21.30;;;;;;5013002;28;20420;-74
2023/01/20 12:21:06;;;;;;;11.00;10.47;;;6.70;21.30;;;;;;5012865;28;20483;-73
2023/01/20 12:23:45;;;;;;;12.30;11.43;;;6.80;21.20;;;;;;5012979;28;20801;-75
2023/01/20 12:26:16;;;;;;;12.13;11.43;;;6.70;21.70;;;;;;5011392;28;20476;-76
2023/01/20 12:28:57;;;;;;;11.40;10.70;;;6.70;21.80;;;;;;5012878;28;20839;-75
2023/01/20 12:31:23;;;;;;;11.50;11.00;;;6.80;21.50;;;;;;5011488;28;20774;-75
2023/01/20 12:33:58;;;;;;;12.83;11.93;;;6.80;21.30;;;;;;5013603;28;20512;-79
2023/01/20 12:36:29;;;;;;;11.63;11.07;;;6.90;21.00;;;;;;5013190;28;20436;-77
2023/01/20 12:39:14;;;;;;;11.93;11.10;;;7.00;20.20;;;;;;5013420;28;20408;-75
2023/01/20 12:41:52;;;;;;;11.53;10.83;;;7.00;19.60;;;;;;5012971;28;20606;-77
2023/01/20 12:44:34;;;;;;;12.40;11.60;;;7.00;19.50;;;;;;5013200;28;20414;-76
2023/01/20 12:47:37;;;;;;;11.30;10.80;;;7.00;19.60;;;;;;5012777;28;20868;-75
2023/01/20 12:50:44;;;;;;;11.43;10.73;;;7.00;19.10;;;;;;5011607;28;20452;-75
2023/01/20 12:53:16;;;;;;;13.00;12.10;;;6.80;18.80;;;;;;4952218;29;20419;-76
2023/01/20 12:56:07;;;;;;;13.00;12.17;;;6.60;20.10;;;;;;4951865;29;20438;-75
2023/01/20 12:58:32;;;;;;;13.40;12.00;;;6.50;20.40;;;;;;4994704;28;20424;-75
2023/01/20 13:01:32;;;;;;;11.93;11.33;;;6.60;20.70;;;;;;5011533;28;20509;-76
2023/01/20 13:04:36;;;;;;;13.70;12.80;;;6.70;21.00;;;;;;5012653;28;20182;-74
2023/01/20 13:07:12;;;;;;;13.40;12.50;;;6.80;21.40;;;;;;4951512;29;20557;-74